createdAt,value
2024-03-16T00:01:27.712Z,13.68
2024-03-16T00:05:28.435Z,13.67
2024-03-16T00:08:55.763Z,13.61
2024-03-16T00:12:33.024Z,13.61
2024-03-16T00:15:59.049Z,13.54
2024-03-16T00:19:36.077Z,13.54
2024-03-16T00:23:22.781Z,13.50
2024-03-16T00:26:59.729Z,13.47
2024-03-16T00:30:34.814Z,13.44
2024-03-16T00:34:14.320Z,13.42
2024-03-16T00:48:11.055Z,13.49
2024-03-16T00:51:00.664Z,13.50
2024-03-16T00:54:42.724Z,13.37
2024-03-16T00:58:16.033Z,13.29
2024-03-16T01:02:15.836Z,13.26
2024-03-16T01:05:31.492Z,13.21
2024-03-16T01:09:07.643Z,13.11
2024-03-16T01:13:04.101Z,13.05
2024-03-16T01:16:42.605Z,12.98
2024-03-16T01:20:15.312Z,12.91
2024-03-16T01:23:44.704Z,12.83
2024-03-16T01:37:46.698Z,12.79
2024-03-16T01:40:44.602Z,12.70
2024-03-16T01:44:29.291Z,12.59
2024-03-16T01:48:11.857Z,12.45
2024-03-16T01:51:31.561Z,12.28
2024-03-16T01:55:19.099Z,12.18
2024-03-16T01:58:44.622Z,12.08
2024-03-16T02:02:40.043Z,11.98
2024-03-16T02:06:09.303Z,11.90
2024-03-16T02:20:17.354Z,11.95
2024-03-16T02:23:12.292Z,11.94
2024-03-16T02:27:07.657Z,11.88
2024-03-16T02:30:43.157Z,11.84
2024-03-16T02:44:26.444Z,11.86
2024-03-16T02:47:21.945Z,11.85
2024-03-16T02:51:01.703Z,11.75
2024-03-16T02:54:34.642Z,11.63
2024-03-16T02:58:22.422Z,11.52
2024-03-16T03:12:13.497Z,11.52
2024-03-16T03:15:07.761Z,11.46
2024-03-16T03:18:42.963Z,11.36
2024-03-16T03:22:26.757Z,11.26
2024-03-16T03:26:02.716Z,11.16
2024-03-16T03:29:45.850Z,11.07
2024-03-16T03:33:32.458Z,11.04
2024-03-16T03:36:49.978Z,10.95
2024-03-16T03:40:27.300Z,10.85
2024-03-16T03:54:50.837Z,10.87
2024-03-16T03:57:41.153Z,10.85
2024-03-16T04:12:07.308Z,10.87
2024-03-16T04:15:00.276Z,10.84
2024-03-16T04:18:47.764Z,10.75
2024-03-16T04:32:57.811Z,10.79
2024-03-16T04:35:51.708Z,10.78
2024-03-16T04:39:26.894Z,10.70
2024-03-16T04:53:29.241Z,10.71
2024-03-16T04:56:18.934Z,10.71
2024-03-16T05:00:05.836Z,10.60
2024-03-16T05:03:46.384Z,10.53
2024-03-16T05:07:12.085Z,10.46
2024-03-16T05:10:52.946Z,10.43
2024-03-16T05:14:47.896Z,10.38
2024-03-16T05:18:05.169Z,10.32
2024-03-16T05:21:49.481Z,10.30
2024-03-16T05:25:20.718Z,10.30
2024-03-16T05:28:59.155Z,10.27
2024-03-16T05:32:36.338Z,10.27
2024-03-16T05:36:14.259Z,10.33
2024-03-16T05:40:04.230Z,10.36
2024-03-16T05:43:33.467Z,10.45
2024-03-16T05:47:22.168Z,10.56
2024-03-16T05:50:55.125Z,10.72
2024-03-16T05:54:32.421Z,10.87
2024-03-16T05:58:17.817Z,11.00
2024-03-16T06:01:46.250Z,11.09
2024-03-16T06:05:15.884Z,11.20
2024-03-16T06:08:53.144Z,11.34
2024-03-16T06:12:32.512Z,11.46
2024-03-16T06:26:52.485Z,12.06
2024-03-16T06:29:33.922Z,12.46
2024-03-16T06:33:22.663Z,12.63
2024-03-16T06:36:54.129Z,12.84
2024-03-16T06:40:31.436Z,13.13
2024-03-16T06:44:04.799Z,13.33
2024-03-16T06:47:42.727Z,13.48
2024-03-16T06:51:20.033Z,13.64
2024-03-16T06:54:58.216Z,13.85
2024-03-16T06:58:35.721Z,14.01
2024-03-16T07:02:13.484Z,14.09
2024-03-16T07:05:55.518Z,14.18
2024-03-16T07:09:29.313Z,14.24
2024-03-16T07:13:07.265Z,14.29
2024-03-16T07:16:44.160Z,14.39
2024-03-16T07:20:21.824Z,14.49
2024-03-16T07:23:57.629Z,14.61
2024-03-16T07:27:38.794Z,14.67
2024-03-16T07:31:16.812Z,14.76
2024-03-16T07:35:07.935Z,14.88
2024-03-16T07:38:36.032Z,15.06
2024-03-16T07:42:24.022Z,15.34
2024-03-16T07:45:59.454Z,15.52
2024-03-16T07:49:24.858Z,15.60
2024-03-16T07:53:04.655Z,15.73
2024-03-16T07:56:42.581Z,16.01
2024-03-16T08:00:18.212Z,16.28
2024-03-16T08:03:55.760Z,16.53
2024-03-16T08:07:34.309Z,16.70
2024-03-16T08:11:15.671Z,16.79
2024-03-16T08:14:48.971Z,16.90
2024-03-16T08:18:36.700Z,17.03
2024-03-16T08:22:12.980Z,17.12
2024-03-16T08:25:42.692Z,17.20
2024-03-16T08:29:19.865Z,17.30
2024-03-16T08:32:57.643Z,17.34
2024-03-16T08:36:35.143Z,17.40
2024-03-16T08:40:14.107Z,17.58
2024-03-16T08:43:50.772Z,17.81
2024-03-16T08:47:28.346Z,18.05
2024-03-16T08:51:06.125Z,18.30
2024-03-16T08:54:42.092Z,18.45
2024-03-16T08:58:26.185Z,18.68
2024-03-16T09:02:00.956Z,18.95
2024-03-16T09:05:38.509Z,19.16
2024-03-16T09:09:17.694Z,19.33
2024-03-16T09:12:53.943Z,19.50
2024-03-16T09:16:31.684Z,19.52
2024-03-16T09:20:11.517Z,19.57
2024-03-16T09:23:47.064Z,19.74
2024-03-16T09:27:24.757Z,19.90
2024-03-16T09:31:06.018Z,19.99
2024-03-16T09:34:40.209Z,19.95
2024-03-16T09:38:18.128Z,20.02
2024-03-16T09:41:57.163Z,20.11
2024-03-16T09:45:33.729Z,20.32
2024-03-16T09:49:11.912Z,20.30
2024-03-16T09:52:50.585Z,20.11
2024-03-16T09:56:27.218Z,20.02
2024-03-16T10:00:15.248Z,19.92
2024-03-16T10:03:43.344Z,19.80
2024-03-16T10:07:19.732Z,19.73
2024-03-16T10:11:19.321Z,19.76
2024-03-16T10:14:35.213Z,19.77
2024-03-16T10:18:16.445Z,19.67
2024-03-16T10:21:54.576Z,19.53
2024-03-16T10:25:28.656Z,19.42
2024-03-16T10:29:11.181Z,19.31
2024-03-16T10:32:45.511Z,19.36
2024-03-16T10:36:21.982Z,19.56
2024-03-16T10:40:01.364Z,19.61
2024-03-16T10:43:37.769Z,19.61
2024-03-16T10:47:15.339Z,19.70
2024-03-16T10:51:17.887Z,19.85
2024-03-16T10:54:30.559Z,19.99
2024-03-16T10:58:29.397Z,20.01
2024-03-16T11:01:48.187Z,19.85
2024-03-16T11:05:37.011Z,19.75
2024-03-16T11:08:59.766Z,19.76
2024-03-16T11:12:39.085Z,19.71
2024-03-16T11:16:31.239Z,19.75
2024-03-16T11:20:37.232Z,19.60
2024-03-16T11:23:35.835Z,19.58
2024-03-16T11:27:14.041Z,19.55
2024-03-16T11:30:54.261Z,19.58
2024-03-16T11:34:29.083Z,19.51
2024-03-16T11:38:13.470Z,19.43
2024-03-16T11:41:49.203Z,19.37
2024-03-16T11:45:21.840Z,19.25
2024-03-16T11:49:03.900Z,19.03
2024-03-16T11:52:37.131Z,18.64
2024-03-16T11:56:13.175Z,18.04
2024-03-16T11:59:54.098Z,17.62
2024-03-16T12:03:31.980Z,17.27
2024-03-16T12:07:10.886Z,17.23
2024-03-16T12:10:48.165Z,17.30
2024-03-16T12:14:35.284Z,17.33
2024-03-16T12:18:07.837Z,17.31
2024-03-16T12:21:49.306Z,17.13
2024-03-16T12:25:18.194Z,16.86
2024-03-16T12:29:10.870Z,16.81
2024-03-16T12:32:52.542Z,16.80
2024-03-16T12:36:11.539Z,16.79
2024-03-16T12:39:49.020Z,16.88
2024-03-16T12:43:26.750Z,17.13
2024-03-16T12:47:04.502Z,17.32
2024-03-16T12:50:42.068Z,17.41
2024-03-16T12:54:19.937Z,17.47
2024-03-16T12:57:57.886Z,17.61
2024-03-16T13:01:35.208Z,17.69
2024-03-16T13:05:14.647Z,17.79
2024-03-16T13:08:50.656Z,17.87
2024-03-16T13:12:28.658Z,17.89
2024-03-16T13:16:11.408Z,17.90
2024-03-16T13:19:44.022Z,18.06
2024-03-16T13:23:19.679Z,18.36
2024-03-16T13:27:03.287Z,18.70
2024-03-16T13:30:38.331Z,18.87
2024-03-16T13:34:16.061Z,18.93
2024-03-16T13:37:53.840Z,18.76
2024-03-16T13:41:31.560Z,18.50
2024-03-16T13:45:09.299Z,18.23
2024-03-16T13:49:01.466Z,18.03
2024-03-16T13:52:22.639Z,17.65
2024-03-16T13:56:02.199Z,17.24
2024-03-16T13:59:44.221Z,16.76
2024-03-16T14:03:20.870Z,16.34
2024-03-16T14:06:58.544Z,15.98
2024-03-16T14:10:38.458Z,15.62
2024-03-16T14:14:14.655Z,15.35
2024-03-16T14:17:51.708Z,15.05
2024-03-16T14:21:30.088Z,14.91
2024-03-16T14:25:08.639Z,14.93
2024-03-16T14:28:46.568Z,15.01
2024-03-16T14:32:22.414Z,15.02
2024-03-16T14:36:00.296Z,15.00
2024-03-16T14:39:37.925Z,15.01
2024-03-16T14:43:19.940Z,14.99
2024-03-16T14:46:53.449Z,15.07
2024-03-16T14:50:33.090Z,15.17
2024-03-16T14:54:08.995Z,15.31
2024-03-16T14:57:46.801Z,15.47
2024-03-16T15:01:24.265Z,15.57
2024-03-16T15:05:07.236Z,15.69
2024-03-16T15:08:39.707Z,15.76
2024-03-16T15:12:17.559Z,15.78
2024-03-16T15:15:55.190Z,15.71
2024-03-16T15:19:33.038Z,15.61
2024-03-16T15:23:10.660Z,15.53
2024-03-16T15:26:57.455Z,15.52
2024-03-16T15:30:26.154Z,15.39
2024-03-16T15:34:03.976Z,15.22
2024-03-16T15:37:42.157Z,15.16
2024-03-16T15:41:19.902Z,15.04
2024-03-16T15:44:58.722Z,14.94
2024-03-16T15:48:34.820Z,14.85
2024-03-16T15:52:16.945Z,14.74
2024-03-16T15:55:51.776Z,14.59
2024-03-16T15:59:27.658Z,14.52
2024-03-16T16:03:05.670Z,14.40
2024-03-16T16:06:43.214Z,14.27
2024-03-16T16:10:21.198Z,14.21
2024-03-16T16:13:58.671Z,14.32
2024-03-16T16:17:36.541Z,14.43
2024-03-16T16:21:14.217Z,14.48
2024-03-16T16:24:53.080Z,14.44
2024-03-16T16:28:29.612Z,14.31
2024-03-16T16:32:08.904Z,14.11
2024-03-16T16:35:47.020Z,13.94
2024-03-16T16:39:21.302Z,13.77
2024-03-16T16:43:02.164Z,13.63
2024-03-16T16:46:39.880Z,13.49
2024-03-16T16:50:17.613Z,13.33
2024-03-16T16:53:55.346Z,13.17
2024-03-16T16:57:34.284Z,13.03
2024-03-16T17:01:10.741Z,12.88
2024-03-16T17:04:49.787Z,12.63
2024-03-16T17:08:26.513Z,12.45
2024-03-16T17:12:04.732Z,12.28
2024-03-16T17:15:42.135Z,12.13
2024-03-16T17:19:20.603Z,12.06
2024-03-16T17:22:57.978Z,11.92
2024-03-16T17:26:35.253Z,11.83
2024-03-16T17:30:13.267Z,11.69
2024-03-16T17:33:50.266Z,11.66
2024-03-16T17:37:28.179Z,11.58
2024-03-16T17:41:05.519Z,11.51
2024-03-16T17:44:43.497Z,11.45
2024-03-16T17:48:19.028Z,11.35
2024-03-16T17:52:00.064Z,11.33
2024-03-16T17:55:37.728Z,11.34
2024-03-16T17:59:20.284Z,11.34
2024-03-16T18:03:12.598Z,11.31
2024-03-16T18:06:30.996Z,11.22
2024-03-16T18:10:08.524Z,11.20
2024-03-16T18:13:46.436Z,11.11
2024-03-16T18:17:24.292Z,11.04
2024-03-16T18:21:01.889Z,11.04
2024-03-16T18:24:58.724Z,11.07
2024-03-16T18:28:17.146Z,11.02
2024-03-16T18:31:54.621Z,10.89
2024-03-16T18:35:33.860Z,10.69
2024-03-16T18:39:15.221Z,10.54
2024-03-16T18:42:48.379Z,10.03
2024-03-16T18:46:25.636Z,9.56
2024-03-16T18:50:03.982Z,9.32
2024-03-16T18:53:41.127Z,9.24
2024-03-16T18:57:20.036Z,9.24
2024-03-16T19:00:59.334Z,9.20
2024-03-16T19:04:34.775Z,9.20
2024-03-16T19:08:12.044Z,9.23
2024-03-16T19:11:49.971Z,9.23
2024-03-16T19:15:30.583Z,9.24
2024-03-16T19:19:05.987Z,9.25
2024-03-16T19:22:41.269Z,9.25
2024-03-16T19:26:22.364Z,9.27
2024-03-16T19:29:59.868Z,9.19
2024-03-16T19:33:37.745Z,9.17
2024-03-16T19:37:18.878Z,9.04
2024-03-16T19:40:53.007Z,8.94
2024-03-16T19:44:28.981Z,8.82
2024-03-16T19:48:10.789Z,8.73
2024-03-16T19:51:47.574Z,8.65
2024-03-16T19:55:27.863Z,8.55
2024-03-16T19:59:03.048Z,8.49
2024-03-16T20:02:41.083Z,8.42
2024-03-16T20:06:18.503Z,8.40
2024-03-16T20:09:57.762Z,8.37
2024-03-16T20:13:38.573Z,8.23
2024-03-16T20:17:16.694Z,8.19
2024-03-16T20:20:57.077Z,8.13
2024-03-16T20:24:34.766Z,8.06
2024-03-16T20:28:09.658Z,7.98
2024-03-16T20:31:48.373Z,7.89
2024-03-16T20:35:25.556Z,7.79
2024-03-16T20:39:02.808Z,7.69
2024-03-16T20:42:42.549Z,7.63
2024-03-16T20:46:18.144Z,7.58
2024-03-16T20:49:53.997Z,7.48
2024-03-16T20:53:34.957Z,7.41
2024-03-16T20:57:16.080Z,7.31
2024-03-16T21:01:16.004Z,7.26
2024-03-16T21:04:31.673Z,7.17
2024-03-16T21:08:11.518Z,7.11
2024-03-16T21:11:45.284Z,7.03
2024-03-16T21:15:26.483Z,6.96
2024-03-16T21:19:03.866Z,6.91
2024-03-16T21:33:07.785Z,6.99
2024-03-16T21:35:57.248Z,7.02
2024-03-16T21:39:37.558Z,6.99
2024-03-16T21:43:13.268Z,6.96
2024-03-16T21:46:51.745Z,6.90
2024-03-16T21:50:28.421Z,6.79
2024-03-16T21:54:06.051Z,6.76
2024-03-16T21:57:41.762Z,6.72
2024-03-16T22:01:23.646Z,6.64
2024-03-16T22:05:01.284Z,6.60
2024-03-16T22:08:38.946Z,6.55
2024-03-16T22:12:19.500Z,6.55
2024-03-16T22:16:00.610Z,6.49
2024-03-16T22:19:38.474Z,6.46
2024-03-16T22:23:16.437Z,6.46
2024-03-16T22:27:01.239Z,6.51
2024-03-16T22:30:30.479Z,6.50
2024-03-16T22:34:11.522Z,6.51
2024-03-16T22:37:49.260Z,6.52
2024-03-16T22:41:24.768Z,6.54
2024-03-16T22:45:07.151Z,6.59
2024-03-16T22:48:43.257Z,6.65
2024-03-16T22:52:21.005Z,6.71
2024-03-16T22:55:58.758Z,6.74
2024-03-16T22:59:36.493Z,6.75
2024-03-16T23:03:12.385Z,6.77
2024-03-16T23:06:51.221Z,6.80
2024-03-16T23:10:33.235Z,6.78
2024-03-16T23:14:15.327Z,6.75
2024-03-16T23:17:51.808Z,6.72
2024-03-16T23:21:29.836Z,6.66
2024-03-16T23:25:08.022Z,6.62
2024-03-16T23:28:45.196Z,6.57
2024-03-16T23:32:27.415Z,6.52
2024-03-16T23:36:18.864Z,6.46
2024-03-16T23:39:38.192Z,6.41
2024-03-16T23:43:15.834Z,6.40
2024-03-16T23:46:53.752Z,6.31
2024-03-16T23:50:31.323Z,6.27
2024-03-16T23:54:19.487Z,6.24
2024-03-16T23:57:46.770Z,6.21
